createdAt,value
2023-01-01T00:00:48.954Z,6.28
2023-01-01T00:03:53.875Z,6.23
2023-01-01T00:06:56.666Z,6.13
2023-01-01T00:10:37.858Z,5.99
2023-01-01T00:13:41.917Z,5.98
2023-01-01T00:16:45.164Z,5.96
2023-01-01T00:19:47.891Z,5.88
2023-01-01T00:22:55.780Z,6.02
2023-01-01T00:25:59.350Z,6.00
2023-01-01T00:29:02.959Z,6.02
2023-01-01T00:32:07.959Z,5.93
2023-01-01T00:35:14.292Z,5.90
2023-01-01T00:38:17.242Z,5.96
2023-01-01T00:41:20.680Z,5.96
2023-01-01T00:44:23.371Z,5.80
2023-01-01T00:47:26.241Z,5.75
2023-01-01T00:50:28.987Z,5.72
2023-01-01T00:53:31.941Z,5.68
2023-01-01T00:56:35.467Z,5.64
2023-01-01T00:59:38.609Z,5.58
2023-01-01T01:02:41.498Z,5.55
2023-01-01T01:05:45.024Z,5.55
2023-01-01T01:08:47.987Z,5.57
2023-01-01T01:11:50.905Z,5.55
2023-01-01T01:15:14.319Z,5.55
2023-01-01T01:18:17.449Z,5.61
2023-01-01T01:21:22.816Z,5.60
2023-01-01T01:24:25.737Z,5.58
2023-01-01T01:27:28.412Z,5.56
2023-01-01T01:30:31.433Z,5.52
2023-01-01T01:33:34.158Z,5.40
2023-01-01T01:36:37.070Z,5.29
2023-01-01T01:39:39.726Z,5.26
2023-01-01T01:42:46.313Z,5.22
2023-01-01T01:45:50.042Z,5.21
2023-01-01T01:48:55.510Z,5.11
2023-01-01T01:52:01.068Z,5.07
2023-01-01T01:55:06.876Z,5.07
2023-01-01T01:58:12.149Z,5.04
2023-01-01T02:01:15.290Z,4.95
2023-01-01T02:04:18.868Z,4.92
2023-01-01T02:07:24.384Z,4.78
2023-01-01T02:10:28.721Z,4.75
2023-01-01T02:13:31.405Z,4.74
2023-01-01T02:16:46.597Z,4.79
2023-01-01T02:19:52.020Z,4.82
2023-01-01T02:23:13.471Z,4.83
2023-01-01T02:26:42.561Z,4.84
2023-01-01T02:29:59.075Z,4.84
2023-01-01T02:33:07.247Z,4.83
2023-01-01T02:36:12.314Z,4.78
2023-01-01T02:39:16.905Z,4.71
2023-01-01T02:42:21.317Z,4.62
2023-01-01T02:45:24.012Z,4.52
2023-01-01T02:48:42.634Z,4.45
2023-01-01T02:52:08.188Z,4.48
2023-01-01T02:55:23.737Z,4.43
2023-01-01T02:59:10.400Z,4.39
2023-01-01T03:02:51.735Z,4.38
2023-01-01T03:06:23.137Z,4.34
2023-01-01T03:09:35.125Z,4.32
2023-01-01T03:12:46.801Z,4.30
2023-01-01T03:16:09.531Z,4.24
2023-01-01T03:19:26.381Z,4.29
2023-01-01T03:22:33.241Z,4.23
2023-01-01T03:25:57.933Z,4.29
2023-01-01T03:29:05.140Z,4.18
2023-01-01T03:32:11.228Z,4.17
2023-01-01T03:35:15.998Z,4.12
2023-01-01T03:38:24.396Z,4.14
2023-01-01T03:41:46.853Z,4.14
2023-01-01T03:44:58.052Z,4.12
2023-01-01T03:48:01.293Z,4.10
2023-01-01T03:51:19.634Z,4.14
2023-01-01T03:54:59.133Z,4.15
2023-01-01T03:58:23.913Z,4.13
2023-01-01T04:01:33.674Z,4.12
2023-01-01T04:04:37.596Z,4.14
2023-01-01T04:10:48.969Z,4.09
2023-01-01T04:13:51.587Z,4.07
2023-01-01T04:16:58.339Z,3.98
2023-01-01T04:20:00.941Z,4.20
2023-01-01T04:23:04.437Z,4.08
2023-01-01T04:26:12.786Z,4.09
2023-01-01T04:29:15.736Z,4.02
2023-01-01T04:32:18.545Z,4.04
2023-01-01T04:35:21.761Z,4.01
2023-01-01T04:38:24.413Z,4.08
2023-01-01T04:41:27.349Z,4.04
2023-01-01T04:44:29.966Z,4.07
2023-01-01T04:47:33.038Z,4.08
2023-01-01T04:50:35.753Z,4.06
2023-01-01T04:53:39.293Z,4.02
2023-01-01T04:56:43.030Z,4.02
2023-01-01T04:59:45.949Z,3.97
2023-01-01T05:02:48.561Z,3.91
2023-01-01T05:06:06.230Z,3.92
2023-01-01T05:09:10.516Z,3.83
2023-01-01T05:12:13.412Z,3.82
2023-01-01T05:15:16.120Z,3.88
2023-01-01T05:18:18.987Z,3.93
2023-01-01T05:21:24.468Z,3.98
2023-01-01T05:24:27.346Z,3.84
2023-01-01T05:27:29.995Z,3.87
2023-01-01T05:30:33.005Z,3.91
2023-01-01T05:33:36.622Z,3.85
2023-01-01T05:36:39.825Z,3.79
2023-01-01T05:39:42.539Z,3.70
2023-01-01T05:42:47.880Z,3.68
2023-01-01T05:46:00.265Z,3.69
2023-01-01T05:49:03.792Z,3.71
2023-01-01T05:52:06.496Z,3.73
2023-01-01T05:55:09.440Z,3.81
2023-01-01T05:58:12.033Z,3.75
2023-01-01T06:01:19.231Z,3.63
2023-01-01T06:04:22.175Z,3.70
2023-01-01T06:07:24.844Z,3.78
2023-01-01T06:10:27.826Z,3.82
2023-01-01T06:13:30.905Z,3.78
2023-01-01T06:16:33.854Z,3.69
2023-01-01T06:19:36.474Z,3.68
2023-01-01T06:22:39.468Z,3.65
2023-01-01T06:25:42.389Z,3.55
2023-01-01T06:28:46.894Z,3.72
2023-01-01T06:31:49.685Z,3.82
2023-01-01T06:34:52.601Z,3.81
2023-01-01T06:37:55.316Z,3.86
2023-01-01T06:41:04.309Z,3.81
2023-01-01T06:44:07.660Z,3.82
2023-01-01T06:47:10.622Z,3.87
2023-01-01T06:50:13.743Z,3.90
2023-01-01T06:53:16.698Z,3.93
2023-01-01T06:56:20.449Z,4.02
2023-01-01T06:59:23.486Z,4.03
2023-01-01T07:02:26.302Z,4.00
2023-01-01T07:05:29.268Z,4.06
2023-01-01T07:08:31.985Z,4.14
2023-01-01T07:11:35.762Z,4.21
2023-01-01T07:14:38.831Z,4.33
2023-01-01T07:17:41.957Z,4.42
2023-01-01T07:20:48.817Z,4.52
2023-01-01T07:23:52.077Z,4.65
2023-01-01T07:26:54.654Z,4.72
2023-01-01T07:29:57.552Z,4.84
2023-01-01T07:33:00.373Z,5.04
2023-01-01T07:36:03.441Z,5.08
2023-01-01T07:39:06.417Z,5.21
2023-01-01T07:42:11.053Z,5.30
2023-01-01T07:45:13.804Z,5.41
2023-01-01T07:48:16.932Z,5.46
2023-01-01T07:51:19.755Z,5.56
2023-01-01T07:54:22.702Z,5.77
2023-01-01T07:57:25.312Z,5.79
2023-01-01T08:00:31.056Z,6.01
2023-01-01T08:03:34.318Z,6.13
2023-01-01T08:06:37.896Z,6.31
2023-01-01T08:09:41.806Z,6.37
2023-01-01T08:12:44.690Z,6.55
2023-01-01T08:15:47.682Z,6.71
2023-01-01T08:18:50.393Z,6.82
2023-01-01T08:21:53.373Z,7.03
2023-01-01T08:24:55.955Z,7.25
2023-01-01T08:27:58.800Z,7.45
2023-01-01T08:31:01.672Z,7.56
2023-01-01T08:34:05.363Z,7.66
2023-01-01T08:37:13.139Z,7.93
2023-01-01T08:40:16.123Z,7.97
2023-01-01T08:43:18.737Z,8.08
2023-01-01T08:46:21.748Z,8.16
2023-01-01T08:49:24.500Z,8.29
2023-01-01T08:52:27.375Z,8.35
2023-01-01T08:55:30.194Z,8.36
2023-01-01T08:58:35.253Z,8.51
2023-01-01T09:01:37.947Z,8.58
2023-01-01T09:04:40.919Z,8.82
2023-01-01T09:07:43.461Z,8.93
2023-01-01T09:10:47.213Z,9.08
2023-01-01T09:13:50.921Z,9.13
2023-01-01T09:16:53.784Z,9.42
2023-01-01T09:19:56.404Z,9.60
2023-01-01T09:23:05.495Z,9.74
2023-01-01T09:26:10.535Z,9.93
2023-01-01T09:29:13.685Z,10.15
2023-01-01T09:32:16.602Z,10.13
2023-01-01T09:35:19.620Z,10.23
2023-01-01T09:38:22.252Z,10.37
2023-01-01T09:41:46.818Z,10.54
2023-01-01T09:45:00.517Z,10.68
2023-01-01T09:48:11.650Z,10.77
2023-01-01T09:51:18.972Z,10.72
2023-01-01T09:54:28.214Z,10.86
2023-01-01T09:57:32.387Z,10.88
2023-01-01T10:00:39.982Z,10.91
2023-01-01T10:03:51.946Z,11.05
2023-01-01T10:07:09.887Z,11.36
2023-01-01T10:10:34.206Z,11.37
2023-01-01T10:13:42.259Z,11.47
2023-01-01T10:16:54.739Z,11.64
2023-01-01T10:20:02.226Z,11.58
2023-01-01T10:23:15.824Z,11.59
2023-01-01T10:26:21.616Z,11.77
2023-01-01T10:29:46.602Z,11.78
2023-01-01T10:32:51.464Z,11.78
2023-01-01T10:35:58.082Z,11.75
2023-01-01T10:39:00.911Z,11.91
2023-01-01T10:42:04.264Z,11.80
2023-01-01T10:45:15.065Z,11.91
2023-01-01T10:48:24.051Z,12.04
2023-01-01T10:51:26.889Z,12.02
2023-01-01T10:54:36.306Z,12.09
2023-01-01T10:57:40.595Z,12.36
2023-01-01T11:00:58.478Z,12.26
2023-01-01T11:04:13.275Z,12.34
2023-01-01T11:07:30.841Z,12.46
2023-01-01T11:10:33.670Z,12.45
2023-01-01T11:13:36.573Z,12.37
2023-01-01T11:16:40.037Z,12.59
2023-01-01T11:19:48.693Z,12.55
2023-01-01T11:22:53.373Z,12.68
2023-01-01T11:26:17.756Z,12.62
2023-01-01T11:29:25.197Z,12.73
2023-01-01T11:32:35.685Z,13.02
2023-01-01T11:35:50.072Z,13.04
2023-01-01T11:39:17.924Z,12.95
2023-01-01T11:42:30.287Z,12.98
2023-01-01T11:45:37.873Z,13.05
2023-01-01T11:48:44.037Z,13.00
2023-01-01T11:51:47.236Z,13.03
2023-01-01T11:54:50.940Z,13.02
2023-01-01T11:58:05.416Z,13.09
2023-01-01T12:01:31.582Z,12.94
2023-01-01T12:04:44.122Z,12.95
2023-01-01T12:07:47.190Z,12.91
2023-01-01T12:11:00.433Z,12.86
2023-01-01T12:14:13.503Z,12.94
2023-01-01T12:17:39.806Z,12.98
2023-01-01T12:20:52.639Z,12.98
2023-01-01T12:23:56.241Z,12.95
2023-01-01T12:27:13.015Z,13.02
2023-01-01T12:30:42.339Z,13.02
2023-01-01T12:34:12.981Z,12.96
2023-01-01T12:37:46.332Z,12.94
2023-01-01T12:41:34.221Z,12.83
2023-01-01T12:44:52.627Z,12.95
2023-01-01T12:48:07.386Z,12.90
2023-01-01T12:51:19.138Z,12.80
2023-01-01T12:54:43.277Z,12.75
2023-01-01T12:57:56.088Z,12.72
2023-01-01T13:01:07.293Z,12.57
2023-01-01T13:04:17.207Z,12.54
2023-01-01T13:07:30.318Z,12.39
2023-01-01T13:10:40.567Z,12.38
2023-01-01T13:13:43.549Z,12.32
2023-01-01T13:16:54.053Z,12.19
2023-01-01T13:20:11.619Z,12.24
2023-01-01T13:23:36.411Z,12.15
2023-01-01T13:26:40.553Z,12.19
2023-01-01T13:29:45.310Z,12.18
2023-01-01T13:33:12.782Z,12.36
2023-01-01T13:36:18.602Z,12.32
2023-01-01T13:39:55.557Z,12.28
2023-01-01T13:43:04.346Z,12.10
2023-01-01T13:46:13.488Z,12.00
2023-01-01T13:49:21.236Z,11.88
2023-01-01T13:52:32.908Z,11.90
2023-01-01T13:55:45.785Z,11.90
2023-01-01T13:58:51.241Z,12.00
2023-01-01T14:02:20.127Z,11.86
2023-01-01T14:05:28.438Z,11.79
2023-01-01T14:08:34.516Z,11.84
2023-01-01T14:11:37.649Z,11.72
2023-01-01T14:14:40.335Z,11.84
2023-01-01T14:17:44.588Z,11.53
2023-01-01T14:20:53.823Z,11.42
2023-01-01T14:24:01.147Z,11.34
2023-01-01T14:27:06.219Z,11.29
2023-01-01T14:30:16.654Z,11.13
2023-01-01T14:33:25.168Z,11.06
2023-01-01T14:36:31.051Z,10.99
2023-01-01T14:39:36.320Z,10.96
2023-01-01T14:42:40.538Z,10.97
2023-01-01T14:45:44.210Z,10.90
2023-01-01T14:49:00.969Z,10.84
2023-01-01T14:52:09.478Z,10.73
2023-01-01T14:55:19.217Z,10.70
2023-01-01T14:58:29.055Z,10.53
2023-01-01T15:01:32.736Z,10.53
2023-01-01T15:04:36.177Z,10.28
2023-01-01T15:07:39.106Z,10.18
2023-01-01T15:10:43.661Z,10.11
2023-01-01T15:14:02.679Z,10.09
2023-01-01T15:17:06.749Z,9.85
2023-01-01T15:20:22.240Z,9.76
2023-01-01T15:23:24.856Z,9.64
2023-01-01T15:26:33.486Z,9.48
2023-01-01T15:29:38.681Z,9.32
2023-01-01T15:32:41.743Z,9.18
2023-01-01T15:35:49.862Z,9.08
2023-01-01T15:38:53.049Z,8.97
2023-01-01T15:41:55.682Z,8.95
2023-01-01T15:45:34.041Z,8.94
2023-01-01T15:48:46.722Z,8.78
2023-01-01T15:51:49.831Z,8.59
2023-01-01T15:54:53.064Z,8.60
2023-01-01T15:57:56.495Z,8.53
2023-01-01T16:01:03.339Z,8.47
2023-01-01T16:04:10.400Z,8.34
2023-01-01T16:07:20.959Z,8.42
2023-01-01T16:10:24.101Z,8.31
2023-01-01T16:13:27.287Z,8.19
2023-01-01T16:16:31.578Z,8.16
2023-01-01T16:19:34.553Z,8.14
2023-01-01T16:22:37.648Z,8.12
2023-01-01T16:25:40.294Z,8.06
2023-01-01T16:28:43.345Z,8.01
2023-01-01T16:31:48.146Z,8.04
2023-01-01T16:34:50.943Z,8.01
2023-01-01T16:37:53.547Z,7.95
2023-01-01T16:40:56.451Z,7.88
2023-01-01T16:43:59.027Z,7.91
2023-01-01T16:47:02.084Z,7.97
2023-01-01T16:50:05.107Z,7.81
2023-01-01T16:53:07.989Z,7.69
2023-01-01T16:56:12.438Z,7.53
2023-01-01T16:59:15.426Z,7.48
2023-01-01T17:02:18.489Z,7.38
2023-01-01T17:05:21.464Z,7.33
2023-01-01T17:08:24.149Z,7.23
2023-01-01T17:11:27.635Z,7.09
2023-01-01T17:14:30.696Z,7.13
2023-01-01T17:17:33.607Z,7.09
2023-01-01T17:20:37.332Z,7.04
2023-01-01T17:23:43.917Z,7.01
2023-01-01T17:26:50.743Z,6.92
2023-01-01T17:29:54.092Z,6.89
2023-01-01T17:32:57.321Z,6.86
2023-01-01T17:36:00.434Z,6.80
2023-01-01T17:39:03.095Z,6.77
2023-01-01T17:42:06.024Z,6.81
2023-01-01T17:45:10.993Z,6.78
2023-01-01T17:48:13.876Z,6.93
2023-01-01T17:51:18.127Z,6.79
2023-01-01T17:54:21.257Z,6.77
2023-01-01T17:57:25.299Z,6.63
2023-01-01T18:00:28.318Z,6.68
2023-01-01T18:03:31.476Z,6.71
2023-01-01T18:06:41.083Z,6.69
2023-01-01T18:09:45.454Z,6.55
2023-01-01T18:12:48.422Z,6.44
2023-01-01T18:15:51.531Z,6.39
2023-01-01T18:18:54.484Z,6.40
2023-01-01T18:21:57.517Z,6.54
2023-01-01T18:25:00.119Z,6.55
2023-01-01T18:28:03.676Z,6.48
2023-01-01T18:31:11.876Z,6.39
2023-01-01T18:34:14.964Z,6.44
2023-01-01T18:37:18.445Z,6.37
2023-01-01T18:40:22.303Z,6.41
2023-01-01T18:43:25.344Z,6.43
2023-01-01T18:46:33.032Z,6.39
2023-01-01T18:49:37.598Z,6.34
2023-01-01T18:52:40.645Z,6.41
2023-01-01T18:55:43.240Z,6.46
2023-01-01T18:58:47.668Z,6.32
2023-01-01T19:01:50.689Z,6.17
2023-01-01T19:05:24.762Z,6.33
2023-01-01T19:08:29.756Z,6.37
2023-01-01T19:11:37.129Z,6.28
2023-01-01T19:14:40.852Z,6.23
2023-01-01T19:17:45.018Z,6.31
2023-01-01T19:20:58.505Z,6.22
2023-01-01T19:24:03.000Z,6.00
2023-01-01T19:27:15.452Z,5.88
2023-01-01T19:30:23.369Z,5.88
2023-01-01T19:33:26.287Z,5.95
2023-01-01T19:36:29.372Z,5.91
2023-01-01T19:39:32.599Z,5.86
2023-01-01T19:42:35.414Z,5.72
2023-01-01T19:45:38.141Z,5.61
2023-01-01T19:48:41.254Z,5.58
2023-01-01T19:51:44.096Z,5.54
2023-01-01T19:54:48.264Z,5.57
2023-01-01T19:57:50.838Z,5.54
2023-01-01T20:00:54.515Z,5.50
2023-01-01T20:03:58.903Z,5.50
2023-01-01T20:07:02.282Z,5.43
2023-01-01T20:10:05.950Z,5.42
2023-01-01T20:13:09.971Z,5.49
2023-01-01T20:16:13.270Z,5.38
2023-01-01T20:19:17.028Z,5.37
2023-01-01T20:22:22.048Z,5.39
2023-01-01T20:25:24.946Z,5.44
2023-01-01T20:28:46.892Z,5.37
2023-01-01T20:31:53.091Z,5.34
2023-01-01T20:34:56.483Z,5.41
2023-01-01T20:37:59.291Z,5.38
2023-01-01T20:41:23.021Z,5.39
2023-01-01T20:44:26.361Z,5.35
2023-01-01T20:47:29.549Z,5.30
2023-01-01T20:50:32.508Z,5.27
2023-01-01T20:53:36.054Z,5.25
2023-01-01T20:56:38.866Z,5.21
2023-01-01T20:59:42.092Z,5.32
2023-01-01T21:02:45.037Z,5.25
2023-01-01T21:05:48.229Z,5.36
2023-01-01T21:08:50.956Z,5.30
2023-01-01T21:11:55.757Z,5.18
2023-01-01T21:14:58.564Z,5.13
2023-01-01T21:18:04.205Z,5.08
2023-01-01T21:21:32.237Z,5.08
2023-01-01T21:24:39.598Z,4.96
2023-01-01T21:27:42.268Z,5.08
2023-01-01T21:30:51.151Z,4.88
2023-01-01T21:33:53.772Z,4.98
2023-01-01T21:37:02.128Z,5.08
2023-01-01T21:40:35.863Z,5.05
2023-01-01T21:43:42.107Z,4.99
2023-01-01T21:46:54.232Z,5.07
2023-01-01T21:49:59.866Z,5.07
2023-01-01T21:53:09.846Z,5.15
2023-01-01T21:56:47.712Z,5.02
2023-01-01T21:59:51.574Z,5.13
2023-01-01T22:02:54.722Z,5.14
2023-01-01T22:05:59.653Z,5.08
2023-01-01T22:09:11.186Z,5.08
2023-01-01T22:12:14.030Z,5.20
2023-01-01T22:15:25.896Z,5.10
2023-01-01T22:18:31.162Z,4.95
2023-01-01T22:21:33.735Z,5.07
2023-01-01T22:24:36.767Z,4.96
2023-01-01T22:27:40.576Z,4.87
2023-01-01T22:30:44.064Z,4.95
2023-01-01T22:33:48.685Z,4.88
2023-01-01T22:36:51.620Z,4.91
2023-01-01T22:39:54.182Z,4.84
2023-01-01T22:43:15.413Z,4.87
2023-01-01T22:46:33.825Z,4.80
2023-01-01T22:49:39.274Z,4.76
2023-01-01T22:52:41.969Z,4.63
2023-01-01T22:55:46.056Z,4.49
2023-01-01T22:58:54.837Z,4.51
2023-01-01T23:02:00.551Z,4.52
2023-01-01T23:05:03.559Z,4.46
2023-01-01T23:08:06.694Z,4.49
2023-01-01T23:11:09.514Z,4.50
2023-01-01T23:14:35.505Z,4.50
2023-01-01T23:17:41.306Z,4.46
2023-01-01T23:20:44.254Z,4.37
2023-01-01T23:23:50.429Z,4.35
2023-01-01T23:26:53.787Z,4.27
2023-01-01T23:29:56.741Z,4.16
2023-01-01T23:32:59.824Z,4.13
2023-01-01T23:36:02.819Z,4.10
2023-01-01T23:39:06.923Z,4.05
2023-01-01T23:42:10.866Z,4.03
2023-01-01T23:45:13.778Z,3.98
2023-01-01T23:48:17.145Z,3.96
2023-01-01T23:51:20.430Z,3.96
2023-01-01T23:54:23.175Z,4.03
2023-01-01T23:57:26.507Z,3.99
